createdAt,value
2023-02-03T04:18:54.593Z,14.90
2023-02-03T04:21:32.709Z,22.98
2023-02-03T04:24:01.204Z,16.27
2023-02-03T04:26:38.352Z,13.77
2023-02-03T04:29:06.621Z,17.52
2023-02-03T04:31:50.674Z,10.77
2023-02-03T04:34:20.513Z,9.70
2023-02-03T04:36:51.459Z,13.63
2023-02-03T04:39:19.753Z,23.08
2023-02-03T04:41:56.621Z,13.90
2023-02-03T04:44:25.468Z,18.50
2023-02-03T04:46:54.006Z,13.35
2023-02-03T04:49:34.135Z,15.55
2023-02-03T04:52:05.934Z,22.08
2023-02-03T04:54:55.141Z,16.52
2023-02-03T04:57:24.301Z,13.05
2023-02-03T05:00:10.122Z,12.38
2023-02-03T05:02:40.979Z,14.82
2023-02-03T05:05:10.829Z,13.18
2023-02-03T05:07:47.396Z,18.10
2023-02-03T05:10:16.465Z,13.55
2023-02-03T05:12:47.795Z,13.32
2023-02-03T05:15:25.806Z,20.05
2023-02-03T05:17:54.389Z,9.00
2023-02-03T05:20:28.601Z,17.27
2023-02-03T05:22:57.207Z,15.20
2023-02-03T05:25:26.299Z,15.90
2023-02-03T05:27:56.265Z,11.95
2023-02-03T05:30:25.062Z,17.50
2023-02-03T05:32:53.929Z,16.13
2023-02-03T05:35:28.403Z,20.55
2023-02-03T05:37:58.480Z,13.85
2023-02-03T05:41:02.511Z,22.02
2023-02-03T05:43:45.991Z,16.73
2023-02-03T05:46:14.330Z,12.88
2023-02-03T05:48:42.651Z,17.92
2023-02-03T05:51:25.639Z,18.65
2023-02-03T05:54:01.683Z,15.43
2023-02-03T05:57:04.900Z,20.20
2023-02-03T05:59:33.153Z,14.20
2023-02-03T06:02:16.570Z,19.40
2023-02-03T06:04:50.429Z,18.17
2023-02-03T06:07:22.554Z,19.80
2023-02-03T06:09:54.082Z,10.93
2023-02-03T06:12:29.102Z,17.42
2023-02-03T06:14:59.227Z,21.42
2023-02-03T06:17:31.027Z,18.52
2023-02-03T06:20:09.371Z,12.98
2023-02-03T06:22:46.030Z,16.48
2023-02-03T06:25:15.147Z,17.58
2023-02-03T06:27:51.012Z,14.38
2023-02-03T06:30:27.734Z,17.63
2023-02-03T06:32:59.200Z,9.43
2023-02-03T06:35:35.858Z,16.67
2023-02-03T06:38:07.537Z,19.33
2023-02-03T06:44:37.064Z,16.95
2023-02-03T06:47:14.361Z,11.30
2023-02-03T06:49:42.719Z,14.13
2023-02-03T06:52:10.883Z,9.40
2023-02-03T06:54:50.401Z,16.33
2023-02-03T06:57:18.574Z,13.45
2023-02-03T06:59:49.409Z,13.18
2023-02-03T07:02:34.696Z,11.02
2023-02-03T07:05:03.077Z,15.32
2023-02-03T07:07:32.554Z,11.75
2023-02-03T07:10:05.054Z,10.65
2023-02-03T07:12:47.552Z,12.20
2023-02-03T07:15:17.032Z,13.77
2023-02-03T07:17:47.179Z,19.08
2023-02-03T07:20:15.550Z,13.45
2023-02-03T07:22:44.957Z,11.88
2023-02-03T07:25:20.462Z,13.45
2023-02-03T07:27:50.917Z,8.75
2023-02-03T07:30:19.394Z,16.83
2023-02-03T07:32:51.555Z,10.02
2023-02-03T07:35:20.359Z,14.20
2023-02-03T07:37:49.474Z,14.98
2023-02-03T07:40:39.804Z,12.73
2023-02-03T07:43:09.062Z,16.08
2023-02-03T07:45:37.813Z,17.27
2023-02-03T07:48:06.782Z,13.52
2023-02-03T07:50:35.193Z,9.23
2023-02-03T07:53:07.222Z,17.98
2023-02-03T07:55:51.914Z,10.88
2023-02-03T07:58:22.690Z,9.27
2023-02-03T08:00:51.627Z,12.65
2023-02-03T08:03:20.197Z,13.15
2023-02-03T08:05:49.309Z,9.48
2023-02-03T08:08:18.478Z,12.98
2023-02-03T08:10:48.176Z,11.55
2023-02-03T08:13:30.240Z,12.43
2023-02-03T08:15:59.012Z,9.07
2023-02-03T08:18:27.557Z,14.85
2023-02-03T08:20:55.919Z,19.58
2023-02-03T08:23:24.181Z,14.63
2023-02-03T08:25:54.887Z,23.80
2023-02-03T08:28:23.164Z,19.90
2023-02-03T08:30:52.516Z,20.85
2023-02-03T08:33:20.917Z,25.02
2023-02-03T08:35:51.377Z,24.58
2023-02-03T08:38:19.780Z,24.55
2023-02-03T08:40:48.087Z,21.88
2023-02-03T08:43:20.503Z,18.08
2023-02-03T08:45:48.888Z,18.35
2023-02-03T08:48:17.671Z,19.10
2023-02-03T08:50:52.077Z,19.13
2023-02-03T08:53:20.269Z,19.38
2023-02-03T08:55:48.527Z,16.55
2023-02-03T08:58:18.293Z,24.42
2023-02-03T09:00:49.896Z,23.67
2023-02-03T09:03:18.427Z,19.85
2023-02-03T09:05:46.543Z,14.13
2023-02-03T09:08:14.839Z,21.40
2023-02-03T09:10:42.905Z,21.10
2023-02-03T09:13:10.962Z,16.80
2023-02-03T09:15:40.529Z,19.70
2023-02-03T09:18:08.630Z,20.75
2023-02-03T09:20:37.512Z,15.93
2023-02-03T09:23:05.639Z,23.00
2023-02-03T09:25:34.566Z,19.35
2023-02-03T09:28:05.596Z,16.05
2023-02-03T09:30:33.824Z,15.77
2023-02-03T09:33:03.263Z,10.85
2023-02-03T09:35:31.524Z,15.75
2023-02-03T09:38:00.808Z,17.40
2023-02-03T09:40:31.395Z,14.57
2023-02-03T09:43:06.392Z,9.40
2023-02-03T09:45:34.479Z,22.60
2023-02-03T09:48:07.589Z,12.07
2023-02-03T09:53:07.530Z,20.13
2023-02-03T09:55:37.010Z,16.10
2023-02-03T09:58:06.959Z,21.25
2023-02-03T10:00:38.101Z,28.05
2023-02-03T10:03:13.284Z,20.10
2023-02-03T10:06:13.883Z,21.90
2023-02-03T10:08:58.430Z,17.25
2023-02-03T10:11:36.918Z,21.15
2023-02-03T10:14:15.238Z,22.63
2023-02-03T10:16:57.747Z,28.45
2023-02-03T10:19:33.076Z,20.48
2023-02-03T10:22:03.024Z,25.30
2023-02-03T10:24:39.668Z,27.70
2023-02-03T10:27:09.645Z,32.38
2023-02-03T10:29:39.673Z,29.38
2023-02-03T10:32:10.525Z,27.65
2023-02-03T10:34:46.989Z,19.55
2023-02-03T10:37:22.537Z,23.70
2023-02-03T10:39:52.993Z,18.45
2023-02-03T10:42:22.173Z,20.85
2023-02-03T10:44:52.343Z,27.83
2023-02-03T10:47:26.651Z,34.22
2023-02-03T10:49:57.596Z,34.08
2023-02-03T10:52:28.891Z,32.08
2023-02-03T10:54:59.562Z,35.90
2023-02-03T10:57:30.297Z,39.92
2023-02-03T11:00:08.832Z,27.17
2023-02-03T11:02:36.911Z,27.25
2023-02-03T11:05:22.304Z,29.70
2023-02-03T11:07:50.364Z,31.20
2023-02-03T11:10:34.311Z,35.08
2023-02-03T11:13:22.519Z,26.00
2023-02-03T11:15:55.432Z,25.02
2023-02-03T11:18:37.113Z,30.88
2023-02-03T11:21:11.362Z,31.10
2023-02-03T11:23:47.692Z,33.75
2023-02-03T11:26:16.989Z,34.92
2023-02-03T11:28:47.690Z,39.08
2023-02-03T11:31:22.254Z,42.67
2023-02-03T11:33:54.295Z,43.25
2023-02-03T11:36:23.870Z,44.67
2023-02-03T11:38:52.176Z,47.35
2023-02-03T11:41:23.946Z,38.53
2023-02-03T11:43:58.314Z,37.17
2023-02-03T11:46:26.783Z,44.85
2023-02-03T11:49:03.278Z,41.97
2023-02-03T11:51:39.632Z,46.28
2023-02-03T11:54:22.163Z,34.00
2023-02-03T11:57:09.555Z,43.47
2023-02-03T11:59:57.955Z,40.40
2023-02-03T12:03:07.354Z,50.80
2023-02-03T12:05:59.519Z,42.05
2023-02-03T12:08:40.773Z,42.85
2023-02-03T12:11:17.941Z,43.20
2023-02-03T12:14:05.635Z,36.58
2023-02-03T12:17:06.393Z,33.42
2023-02-03T12:19:42.790Z,34.15
2023-02-03T12:22:17.535Z,28.95
2023-02-03T12:24:58.693Z,36.80
2023-02-03T12:27:36.539Z,29.10
2023-02-03T12:30:11.278Z,25.98
2023-02-03T12:32:43.250Z,27.25
2023-02-03T12:35:17.307Z,27.42
2023-02-03T12:37:50.174Z,28.33
2023-02-03T12:40:23.929Z,13.98
2023-02-03T12:42:58.148Z,28.58
2023-02-03T12:45:29.662Z,24.85
2023-02-03T12:48:01.050Z,20.85
2023-02-03T12:50:33.634Z,23.77
2023-02-03T12:53:07.252Z,27.58
2023-02-03T12:55:39.072Z,25.42
2023-02-03T12:58:11.525Z,29.48
2023-02-03T13:00:44.705Z,26.42
2023-02-03T13:03:21.483Z,20.80
2023-02-03T13:05:53.809Z,29.08
2023-02-03T13:08:33.640Z,20.65
2023-02-03T13:11:18.233Z,20.67
2023-02-03T13:13:50.498Z,22.25
2023-02-03T13:16:29.125Z,15.83
2023-02-03T13:19:09.320Z,24.75
2023-02-03T13:21:43.906Z,21.95
2023-02-03T13:24:23.415Z,20.23
2023-02-03T13:27:17.068Z,20.83
2023-02-03T13:30:07.664Z,25.77
2023-02-03T13:33:00.253Z,17.77
2023-02-03T13:35:50.028Z,26.65
2023-02-03T13:38:44.128Z,19.35
2023-02-03T13:41:19.372Z,21.33
2023-02-03T13:43:51.359Z,16.98
2023-02-03T13:46:23.711Z,12.73
2023-02-03T13:48:52.839Z,24.95
2023-02-03T13:51:23.963Z,13.57
2023-02-03T13:53:53.551Z,18.25
2023-02-03T13:56:23.287Z,21.08
2023-02-03T13:59:04.299Z,19.70
2023-02-03T14:01:38.543Z,18.58
2023-02-03T14:04:08.397Z,29.50
2023-02-03T14:07:01.278Z,16.42
2023-02-03T14:09:42.726Z,23.77
2023-02-03T14:12:59.600Z,24.98
2023-02-03T14:15:34.849Z,33.33
2023-02-03T14:18:22.395Z,32.35
2023-02-03T14:21:10.898Z,24.35
2023-02-03T14:23:47.763Z,37.50
2023-02-03T14:26:41.421Z,39.08
2023-02-03T14:31:59.918Z,28.25
2023-02-03T14:34:34.134Z,42.53
2023-02-03T14:37:21.622Z,41.60
2023-02-03T14:40:25.686Z,43.42
2023-02-03T14:43:20.543Z,39.70
2023-02-03T14:46:30.105Z,39.22
2023-02-03T14:49:15.165Z,42.53
2023-02-03T14:52:22.092Z,44.55
2023-02-03T14:55:06.013Z,43.40
2023-02-03T14:57:40.110Z,39.15
2023-02-03T15:00:27.516Z,36.33
2023-02-03T15:03:20.141Z,42.38
2023-02-03T15:08:36.731Z,41.85
2023-02-03T15:11:31.095Z,49.85
2023-02-03T15:14:24.265Z,45.58
2023-02-03T15:16:57.165Z,55.05
2023-02-03T15:19:28.682Z,38.00
2023-02-03T15:21:57.095Z,43.30
2023-02-03T15:24:26.096Z,33.83
2023-02-03T15:26:57.487Z,37.72
2023-02-03T15:29:31.038Z,39.38
2023-02-03T15:32:04.305Z,40.08
2023-02-03T15:34:36.621Z,44.17
2023-02-03T15:37:10.900Z,43.77
2023-02-03T15:39:46.117Z,40.25
2023-02-03T15:42:21.473Z,46.42
2023-02-03T15:44:54.766Z,39.90
2023-02-03T15:47:30.402Z,35.50
2023-02-03T15:50:10.211Z,39.28
2023-02-03T15:52:42.588Z,37.10
2023-02-03T15:55:21.039Z,51.15
2023-02-03T15:57:52.293Z,55.22
2023-02-03T16:00:34.033Z,40.83
2023-02-03T16:03:03.437Z,36.95
2023-02-03T16:05:33.641Z,30.55
2023-02-03T16:08:31.155Z,43.78
2023-02-03T16:11:01.908Z,36.88
2023-02-03T16:13:33.378Z,41.67
2023-02-03T16:16:05.865Z,39.75
2023-02-03T16:18:36.974Z,28.08
2023-02-03T16:21:06.143Z,46.28
2023-02-03T16:23:35.006Z,43.22
2023-02-03T16:26:20.926Z,35.83
2023-02-03T16:29:29.674Z,45.58
2023-02-03T16:32:15.633Z,35.10
2023-02-03T16:35:01.255Z,36.55
2023-02-03T16:37:48.668Z,35.88
2023-02-03T16:40:38.003Z,37.15
2023-02-03T16:43:25.067Z,41.70
2023-02-03T16:46:14.377Z,37.13
2023-02-03T16:49:00.331Z,35.38
2023-02-03T16:51:34.417Z,32.45
2023-02-03T16:54:02.923Z,37.95
2023-02-03T16:56:31.400Z,28.52
2023-02-03T16:59:03.855Z,31.90
2023-02-03T17:01:40.634Z,37.33
2023-02-03T17:04:11.177Z,30.05
2023-02-03T17:06:44.581Z,36.55
2023-02-03T17:09:15.694Z,34.15
2023-02-03T17:11:48.914Z,33.35
2023-02-03T17:14:23.624Z,27.77
2023-02-03T17:16:54.017Z,27.60
2023-02-03T17:19:22.448Z,32.67
2023-02-03T17:21:52.423Z,26.98
2023-02-03T17:24:22.777Z,33.55
2023-02-03T17:26:52.711Z,33.90
2023-02-03T17:29:23.929Z,30.75
2023-02-03T17:31:53.953Z,29.73
2023-02-03T17:34:22.440Z,29.00
2023-02-03T17:36:55.805Z,30.10
2023-02-03T17:53:20.344Z,30.67
2023-02-03T17:55:50.285Z,32.03
2023-02-03T17:58:20.798Z,30.38
2023-02-03T18:00:49.351Z,31.25
2023-02-03T18:03:19.130Z,36.92
2023-02-03T18:05:52.628Z,29.40
2023-02-03T18:08:25.383Z,41.15
2023-02-03T18:10:57.125Z,33.90
2023-02-03T18:13:27.796Z,40.22
2023-02-03T18:15:57.780Z,24.60
2023-02-03T18:18:29.462Z,27.73
2023-02-03T18:20:57.933Z,30.35
2023-02-03T18:23:27.094Z,31.80
2023-02-03T18:25:55.801Z,33.92
2023-02-03T18:28:27.157Z,33.22
2023-02-03T18:31:03.536Z,29.17
2023-02-03T18:33:33.883Z,35.95
2023-02-03T18:36:03.658Z,38.47
2023-02-03T18:38:33.419Z,36.35
2023-02-03T18:41:12.021Z,40.33
2023-02-03T18:43:40.637Z,19.50
2023-02-03T18:46:09.552Z,38.63
2023-02-03T18:48:40.123Z,35.65
2023-02-03T18:51:10.605Z,28.92
2023-02-03T18:53:39.417Z,46.08
2023-02-03T18:56:09.358Z,29.25
2023-02-03T18:58:41.637Z,25.77
2023-02-03T19:01:11.358Z,33.15
2023-02-03T19:03:43.712Z,23.58
2023-02-03T19:06:12.398Z,34.65
2023-02-03T19:08:41.004Z,38.03
2023-02-03T19:11:09.288Z,33.33
2023-02-03T19:13:37.731Z,21.23
2023-02-03T19:16:06.646Z,32.10
2023-02-03T19:18:36.313Z,27.75
2023-02-03T19:21:07.012Z,39.05
2023-02-03T19:23:37.159Z,38.63
2023-02-03T19:26:12.199Z,26.92
2023-02-03T19:28:44.012Z,30.88
2023-02-03T19:31:16.982Z,31.07
2023-02-03T19:33:45.743Z,34.45
2023-02-03T19:36:19.370Z,43.70
2023-02-03T19:38:47.858Z,39.67
2023-02-03T19:41:16.387Z,37.95
2023-02-03T19:43:46.570Z,31.45
2023-02-03T19:46:18.820Z,35.25
2023-02-03T19:48:48.487Z,29.75
2023-02-03T19:51:19.148Z,27.00
2023-02-03T19:53:48.041Z,33.03
2023-02-03T19:56:16.754Z,34.80
2023-02-03T19:58:57.560Z,38.67
2023-02-03T20:04:50.928Z,40.22
2023-02-03T20:07:23.495Z,29.65
2023-02-03T20:09:52.024Z,37.55
2023-02-03T20:12:22.451Z,38.20
2023-02-03T20:15:10.585Z,31.50
2023-02-03T20:17:44.637Z,40.03
2023-02-03T20:20:15.709Z,34.17
2023-02-03T20:22:47.896Z,31.77
2023-02-03T20:25:19.963Z,41.73
2023-02-03T20:27:57.751Z,43.58
2023-02-03T20:36:45.250Z,49.33
2023-02-03T20:39:36.311Z,36.00
2023-02-03T20:42:07.753Z,40.25
2023-02-03T20:44:36.501Z,40.60
2023-02-03T20:47:05.738Z,33.35
2023-02-03T20:49:34.611Z,38.03
2023-02-03T20:52:21.644Z,35.40
2023-02-03T20:54:54.286Z,44.28
2023-02-03T20:57:23.417Z,47.40
2023-02-03T20:59:52.195Z,35.05
2023-02-03T21:02:37.014Z,46.67
2023-02-03T21:05:28.196Z,40.28
2023-02-03T21:08:18.174Z,35.08
2023-02-03T21:10:50.942Z,43.33
2023-02-03T21:13:23.724Z,39.45
2023-02-03T21:15:53.949Z,41.58
2023-02-03T21:18:31.947Z,47.35
2023-02-03T21:21:01.178Z,44.15
2023-02-03T21:23:37.498Z,53.90
2023-02-03T21:26:20.159Z,57.30
2023-02-03T21:28:51.069Z,45.30
2023-02-03T21:31:26.262Z,40.03
2023-02-03T21:33:56.121Z,44.28
2023-02-03T21:36:26.149Z,42.28
2023-02-03T21:38:56.155Z,37.20
2023-02-03T21:41:27.176Z,43.88
2023-02-03T21:43:57.284Z,45.00
2023-02-03T21:46:27.956Z,49.95
2023-02-03T21:49:00.531Z,40.35
2023-02-03T21:51:30.979Z,53.28
2023-02-03T21:54:01.050Z,38.55
2023-02-03T21:56:37.634Z,42.97
2023-02-03T21:59:07.506Z,49.58
2023-02-03T22:01:38.710Z,43.22
2023-02-03T22:04:07.831Z,37.80
2023-02-03T22:06:43.953Z,45.70
2023-02-03T22:09:13.990Z,37.53
2023-02-03T22:11:44.450Z,46.45
2023-02-03T22:14:14.060Z,42.83
2023-02-03T22:16:47.656Z,35.95
2023-02-03T22:19:17.961Z,44.03
2023-02-03T22:21:47.975Z,46.47
2023-02-03T22:24:16.673Z,51.50
2023-02-03T22:26:46.630Z,49.92
2023-02-03T22:29:15.367Z,43.67
2023-02-03T22:31:44.023Z,47.50
2023-02-03T22:34:12.552Z,50.20
2023-02-03T22:36:41.125Z,47.33
2023-02-03T22:39:27.676Z,50.00
2023-02-03T22:42:17.345Z,48.55
2023-02-03T22:45:04.862Z,58.65
2023-02-03T22:47:40.788Z,47.67
2023-02-03T22:50:35.374Z,53.38
2023-02-03T22:53:14.170Z,38.88
2023-02-03T22:55:59.302Z,38.13
2023-02-03T22:58:49.566Z,47.58
2023-02-03T23:01:23.214Z,48.17
2023-02-03T23:07:24.920Z,49.58
2023-02-03T23:09:56.289Z,43.05
2023-02-03T23:12:36.271Z,53.25
2023-02-03T23:15:48.869Z,66.13
2023-02-03T23:18:24.308Z,44.65
2023-02-03T23:21:17.069Z,41.72
2023-02-03T23:24:11.260Z,54.55
2023-02-03T23:26:58.605Z,55.13
2023-02-03T23:32:36.463Z,44.47
2023-02-03T23:38:40.390Z,50.08
2023-02-03T23:41:26.213Z,44.58
2023-02-03T23:44:04.572Z,69.72
2023-02-03T23:47:06.262Z,52.95
2023-02-03T23:50:21.034Z,48.03
2023-02-03T23:53:05.390Z,44.05
2023-02-03T23:55:52.260Z,51.58
2023-02-03T23:58:25.637Z,52.67
